createdAt,value
2023-04-18T00:05:33.144Z,6.47
2023-04-18T00:15:37.340Z,6.43
2023-04-18T00:25:40.175Z,6.95
2023-04-18T00:35:44.345Z,6.30
2023-04-18T00:45:47.046Z,6.63
2023-04-18T00:55:51.446Z,7.18
2023-04-18T01:05:55.142Z,6.85
2023-04-18T01:15:59.223Z,6.63
2023-04-18T01:26:03.287Z,6.70
2023-04-18T01:36:06.306Z,6.60
2023-04-18T01:46:10.392Z,7.38
2023-04-18T01:56:13.144Z,6.88
2023-04-18T02:06:17.162Z,6.78
2023-04-18T02:16:19.889Z,6.82
2023-04-18T02:26:24.059Z,7.38
2023-04-18T02:36:28.038Z,6.47
2023-04-18T02:46:32.102Z,6.75
2023-04-18T02:56:39.754Z,6.68
2023-04-18T03:06:43.803Z,6.03
2023-04-18T03:16:46.826Z,6.15
2023-04-18T03:26:50.879Z,6.00
2023-04-18T03:36:53.545Z,6.07
2023-04-18T03:46:57.670Z,6.05
2023-04-18T03:57:00.846Z,8.95
2023-04-18T04:07:05.036Z,6.65
2023-04-18T04:17:07.738Z,7.82
2023-04-18T04:27:12.499Z,7.80
2023-04-18T04:37:15.170Z,7.75
2023-04-18T04:47:19.235Z,7.80
2023-04-18T04:57:21.885Z,7.53
2023-04-18T05:07:26.161Z,6.82
2023-04-18T05:17:28.928Z,6.68
2023-04-18T05:27:32.973Z,8.25
2023-04-18T05:37:35.832Z,7.32
2023-04-18T05:47:41.105Z,6.82
2023-04-18T05:57:43.918Z,6.65
2023-04-18T06:07:48.136Z,7.82
2023-04-18T06:17:51.590Z,6.05
2023-04-18T06:27:55.610Z,7.38
2023-04-18T06:37:58.436Z,6.85
2023-04-18T06:48:04.246Z,7.15
2023-04-18T06:58:08.407Z,6.55
2023-04-18T07:08:12.455Z,6.05
2023-04-18T07:18:23.328Z,5.57
2023-04-18T07:28:34.543Z,5.47
2023-04-18T07:38:37.314Z,6.03
2023-04-18T07:48:41.395Z,4.97
2023-04-18T07:58:44.076Z,6.50
2023-04-18T08:08:48.152Z,4.47
2023-04-18T08:18:50.822Z,4.45
2023-04-18T08:28:54.886Z,5.00
2023-04-18T08:38:57.940Z,4.60
2023-04-18T08:49:03.545Z,5.57
2023-04-18T08:59:06.225Z,6.70
2023-04-18T09:09:10.552Z,6.18
2023-04-18T09:19:18.441Z,5.90
2023-04-18T09:29:24.128Z,6.10
2023-04-18T09:39:28.603Z,6.40
2023-04-18T09:49:33.479Z,6.18
2023-04-18T09:59:43.559Z,6.72
2023-04-18T10:20:06.336Z,5.60
2023-04-18T10:30:11.916Z,6.15
2023-04-18T10:40:15.359Z,4.85
2023-04-18T10:50:19.396Z,4.32
2023-04-18T11:00:24.179Z,3.92
2023-04-18T11:10:29.376Z,4.65
2023-04-18T11:20:40.054Z,3.53
2023-04-18T11:30:44.081Z,2.38
2023-04-18T11:40:50.537Z,2.58
2023-04-18T11:50:54.642Z,2.67
2023-04-18T12:00:57.341Z,2.80
2023-04-18T12:11:01.556Z,3.50
2023-04-18T12:21:06.148Z,3.42
2023-04-18T12:31:10.995Z,3.63
2023-04-18T12:41:14.533Z,3.55
2023-04-18T12:51:18.557Z,3.63
2023-04-18T13:01:21.332Z,3.85
2023-04-18T13:11:28.443Z,4.65
2023-04-18T13:21:31.264Z,5.23
2023-04-18T13:31:35.366Z,5.05
2023-04-18T13:41:38.093Z,5.18
2023-04-18T13:51:42.219Z,4.60
2023-04-18T14:01:44.945Z,5.57
2023-04-18T14:11:48.969Z,4.85
2023-04-18T14:21:51.751Z,5.38
2023-04-18T14:31:55.785Z,5.07
2023-04-18T14:41:58.841Z,5.38
2023-04-18T14:52:02.901Z,6.65
2023-04-18T15:02:05.673Z,5.93
2023-04-18T15:12:09.835Z,5.72
2023-04-18T15:22:12.476Z,4.97
2023-04-18T15:32:16.722Z,4.20
2023-04-18T15:42:19.573Z,3.83
2023-04-18T15:52:23.583Z,3.78
2023-04-18T16:02:26.536Z,3.40
2023-04-18T16:12:30.747Z,3.30
2023-04-18T16:22:33.552Z,3.90
2023-04-18T16:32:38.255Z,3.85
2023-04-18T16:42:41.084Z,4.05
2023-04-18T16:52:45.130Z,4.20
2023-04-18T17:02:48.379Z,4.25
2023-04-18T17:12:52.944Z,4.85
2023-04-18T17:22:55.663Z,4.70
2023-04-18T17:32:59.754Z,5.05
2023-04-18T17:43:02.444Z,5.00
2023-04-18T17:53:06.494Z,5.03
2023-04-18T18:03:13.541Z,4.70
2023-04-18T18:13:17.909Z,4.55
2023-04-18T18:23:20.568Z,5.10
2023-04-18T18:33:24.599Z,5.10
2023-04-18T18:43:27.242Z,5.00
2023-04-18T18:53:31.238Z,6.10
2023-04-18T19:03:34.778Z,4.93
2023-04-18T19:13:38.929Z,4.95
2023-04-18T19:23:42.193Z,5.18
2023-04-18T19:33:46.205Z,4.47
2023-04-18T19:43:49.149Z,4.32
2023-04-18T19:53:54.864Z,4.28
2023-04-18T20:04:00.501Z,3.90
2023-04-18T20:14:04.940Z,4.05
2023-04-18T20:24:09.616Z,4.90
2023-04-18T20:34:13.669Z,4.55
2023-04-18T20:44:18.969Z,4.40
2023-04-18T20:54:23.484Z,3.78
2023-04-18T21:04:26.292Z,4.30
2023-04-18T21:14:30.607Z,4.40
2023-04-18T21:24:33.629Z,4.25
2023-04-18T21:34:37.638Z,4.05
2023-04-18T21:44:40.327Z,3.40
2023-04-18T21:54:44.648Z,3.80
2023-04-18T22:04:48.052Z,3.72
2023-04-18T22:14:55.549Z,4.00
2023-04-18T22:24:58.216Z,4.05
2023-04-18T22:35:03.028Z,4.28
2023-04-18T22:45:06.821Z,3.97
2023-04-18T22:55:11.407Z,4.25
2023-04-18T23:05:15.920Z,4.20
2023-04-18T23:15:22.701Z,4.60
2023-04-18T23:25:25.549Z,4.20
2023-04-18T23:35:29.618Z,4.90
2023-04-18T23:45:32.281Z,5.10
2023-04-18T23:55:36.260Z,5.57
